sensor_id;sensor_type;location;lat;lon;timestamp;P1;durP1;ratioP1;P2;durP2;ratioP2
19836;SDS011;10079;55.740;37.662;2023-02-19T00:00:14;19.83;;;9.80;;
19836;SDS011;10079;55.740;37.662;2023-02-19T00:03:04;21.43;;;8.37;;
19836;SDS011;10079;55.740;37.662;2023-02-19T00:05:48;18.43;;;8.80;;
19836;SDS011;10079;55.740;37.662;2023-02-19T00:08:32;17.00;;;8.20;;
19836;SDS011;10079;55.740;37.662;2023-02-19T00:11:14;20.63;;;9.37;;
19836;SDS011;10079;55.740;37.662;2023-02-19T00:14:07;20.83;;;10.53;;
19836;SDS011;10079;55.740;37.662;2023-02-19T00:16:48;20.07;;;9.97;;
19836;SDS011;10079;55.740;37.662;2023-02-19T00:19:32;21.27;;;9.70;;
19836;SDS011;10079;55.740;37.662;2023-02-19T00:22:13;19.50;;;9.57;;
19836;SDS011;10079;55.740;37.662;2023-02-19T00:24:54;17.27;;;8.73;;
19836;SDS011;10079;55.740;37.662;2023-02-19T00:27:34;15.77;;;8.80;;
19836;SDS011;10079;55.740;37.662;2023-02-19T00:30:15;16.17;;;8.43;;
19836;SDS011;10079;55.740;37.662;2023-02-19T00:32:56;19.43;;;10.40;;
19836;SDS011;10079;55.740;37.662;2023-02-19T00:35:37;20.27;;;9.37;;
19836;SDS011;10079;55.740;37.662;2023-02-19T00:38:19;18.87;;;9.40;;
19836;SDS011;10079;55.740;37.662;2023-02-19T00:40:59;17.53;;;8.83;;
19836;SDS011;10079;55.740;37.662;2023-02-19T00:43:40;17.57;;;9.50;;
19836;SDS011;10079;55.740;37.662;2023-02-19T00:46:22;17.60;;;8.87;;
19836;SDS011;10079;55.740;37.662;2023-02-19T00:49:04;14.57;;;8.50;;
19836;SDS011;10079;55.740;37.662;2023-02-19T00:51:44;15.57;;;8.23;;
19836;SDS011;10079;55.740;37.662;2023-02-19T00:54:25;18.93;;;9.47;;
19836;SDS011;10079;55.740;37.662;2023-02-19T00:57:10;19.43;;;9.43;;
19836;SDS011;10079;55.740;37.662;2023-02-19T01:00:00;20.30;;;9.77;;
19836;SDS011;10079;55.740;37.662;2023-02-19T01:02:44;20.17;;;9.40;;
19836;SDS011;10079;55.740;37.662;2023-02-19T01:05:37;18.80;;;9.83;;
19836;SDS011;10079;55.740;37.662;2023-02-19T01:18:58;21.13;;;11.07;;
19836;SDS011;10079;55.740;37.662;2023-02-19T01:21:38;18.73;;;8.80;;
19836;SDS011;10079;55.740;37.662;2023-02-19T01:24:22;23.83;;;10.40;;
19836;SDS011;10079;55.740;37.662;2023-02-19T01:27:07;17.30;;;9.57;;
19836;SDS011;10079;55.740;37.662;2023-02-19T01:29:59;18.73;;;8.83;;
19836;SDS011;10079;55.740;37.662;2023-02-19T01:32:48;18.60;;;9.33;;
19836;SDS011;10079;55.740;37.662;2023-02-19T01:35:33;18.00;;;8.90;;
19836;SDS011;10079;55.740;37.662;2023-02-19T01:38:13;17.53;;;7.70;;
19836;SDS011;10079;55.740;37.662;2023-02-19T01:40:59;19.03;;;10.07;;
19836;SDS011;10079;55.740;37.662;2023-02-19T01:46:37;17.17;;;9.07;;
19836;SDS011;10079;55.740;37.662;2023-02-19T02:00:03;15.23;;;8.53;;
19836;SDS011;10079;55.740;37.662;2023-02-19T02:13:41;15.77;;;8.47;;
19836;SDS011;10079;55.740;37.662;2023-02-19T02:16:29;16.63;;;8.47;;
19836;SDS011;10079;55.740;37.662;2023-02-19T02:22:09;17.73;;;7.60;;
19836;SDS011;10079;55.740;37.662;2023-02-19T02:25:21;14.10;;;8.07;;
19836;SDS011;10079;55.740;37.662;2023-02-19T02:28:21;16.30;;;7.80;;
19836;SDS011;10079;55.740;37.662;2023-02-19T02:31:08;14.83;;;8.17;;
19836;SDS011;10079;55.740;37.662;2023-02-19T02:33:57;16.43;;;8.43;;
19836;SDS011;10079;55.740;37.662;2023-02-19T02:36:40;16.30;;;7.67;;
19836;SDS011;10079;55.740;37.662;2023-02-19T02:39:24;16.10;;;7.27;;
19836;SDS011;10079;55.740;37.662;2023-02-19T02:42:04;13.57;;;7.30;;
19836;SDS011;10079;55.740;37.662;2023-02-19T02:44:45;14.63;;;7.50;;
19836;SDS011;10079;55.740;37.662;2023-02-19T02:47:25;15.60;;;7.47;;
19836;SDS011;10079;55.740;37.662;2023-02-19T02:50:08;13.07;;;7.40;;
19836;SDS011;10079;55.740;37.662;2023-02-19T02:52:49;14.77;;;6.80;;
19836;SDS011;10079;55.740;37.662;2023-02-19T02:55:33;15.63;;;7.10;;
19836;SDS011;10079;55.740;37.662;2023-02-19T02:58:13;14.53;;;7.83;;
19836;SDS011;10079;55.740;37.662;2023-02-19T03:00:56;15.10;;;6.83;;
19836;SDS011;10079;55.740;37.662;2023-02-19T03:03:40;16.97;;;7.17;;
19836;SDS011;10079;55.740;37.662;2023-02-19T03:06:20;15.73;;;7.33;;
19836;SDS011;10079;55.740;37.662;2023-02-19T03:09:06;11.97;;;6.57;;
19836;SDS011;10079;55.740;37.662;2023-02-19T03:11:45;15.63;;;7.33;;
19836;SDS011;10079;55.740;37.662;2023-02-19T03:14:28;14.33;;;6.87;;
19836;SDS011;10079;55.740;37.662;2023-02-19T03:17:14;13.00;;;6.90;;
19836;SDS011;10079;55.740;37.662;2023-02-19T03:19:54;12.57;;;6.70;;
19836;SDS011;10079;55.740;37.662;2023-02-19T03:22:35;13.97;;;6.67;;
19836;SDS011;10079;55.740;37.662;2023-02-19T03:25:19;17.00;;;7.87;;
19836;SDS011;10079;55.740;37.662;2023-02-19T03:28:00;14.93;;;6.57;;
19836;SDS011;10079;55.740;37.662;2023-02-19T03:30:42;12.23;;;7.20;;
19836;SDS011;10079;55.740;37.662;2023-02-19T03:33:25;15.43;;;7.13;;
19836;SDS011;10079;55.740;37.662;2023-02-19T03:36:05;13.30;;;7.30;;
19836;SDS011;10079;55.740;37.662;2023-02-19T03:38:53;13.57;;;6.67;;
19836;SDS011;10079;55.740;37.662;2023-02-19T03:41:35;16.13;;;8.30;;
19836;SDS011;10079;55.740;37.662;2023-02-19T03:44:24;13.63;;;6.87;;
19836;SDS011;10079;55.740;37.662;2023-02-19T04:08:21;15.97;;;9.07;;
19836;SDS011;10079;55.740;37.662;2023-02-19T04:11:11;13.60;;;8.03;;
19836;SDS011;10079;55.740;37.662;2023-02-19T04:14:07;15.80;;;8.57;;
19836;SDS011;10079;55.740;37.662;2023-02-19T04:17:07;15.17;;;8.63;;
19836;SDS011;10079;55.740;37.662;2023-02-19T04:19:48;15.63;;;7.67;;
19836;SDS011;10079;55.740;37.662;2023-02-19T04:22:41;18.67;;;8.80;;
19836;SDS011;10079;55.740;37.662;2023-02-19T04:25:22;15.13;;;8.57;;
19836;SDS011;10079;55.740;37.662;2023-02-19T04:28:15;16.97;;;8.53;;
19836;SDS011;10079;55.740;37.662;2023-02-19T04:30:59;16.03;;;8.40;;
19836;SDS011;10079;55.740;37.662;2023-02-19T04:44:15;19.00;;;9.50;;
19836;SDS011;10079;55.740;37.662;2023-02-19T04:57:30;20.53;;;10.07;;
19836;SDS011;10079;55.740;37.662;2023-02-19T05:00:19;19.10;;;8.83;;
19836;SDS011;10079;55.740;37.662;2023-02-19T05:03:03;17.00;;;8.30;;
19836;SDS011;10079;55.740;37.662;2023-02-19T05:16:24;16.47;;;8.63;;
19836;SDS011;10079;55.740;37.662;2023-02-19T05:19:04;18.40;;;7.93;;
19836;SDS011;10079;55.740;37.662;2023-02-19T05:21:54;15.83;;;7.60;;
19836;SDS011;10079;55.740;37.662;2023-02-19T05:24:35;15.33;;;8.47;;
19836;SDS011;10079;55.740;37.662;2023-02-19T05:27:15;13.73;;;7.00;;
19836;SDS011;10079;55.740;37.662;2023-02-19T05:29:56;13.43;;;7.50;;
19836;SDS011;10079;55.740;37.662;2023-02-19T05:32:42;18.93;;;7.53;;
19836;SDS011;10079;55.740;37.662;2023-02-19T05:35:23;15.60;;;7.47;;
19836;SDS011;10079;55.740;37.662;2023-02-19T05:38:03;13.30;;;6.57;;
19836;SDS011;10079;55.740;37.662;2023-02-19T05:40:45;12.30;;;5.83;;
19836;SDS011;10079;55.740;37.662;2023-02-19T05:43:25;13.97;;;7.07;;
19836;SDS011;10079;55.740;37.662;2023-02-19T05:46:10;13.90;;;6.97;;
19836;SDS011;10079;55.740;37.662;2023-02-19T05:48:50;14.57;;;7.70;;
19836;SDS011;10079;55.740;37.662;2023-02-19T05:51:34;11.50;;;6.87;;
19836;SDS011;10079;55.740;37.662;2023-02-19T05:54:18;14.63;;;6.90;;
19836;SDS011;10079;55.740;37.662;2023-02-19T05:57:03;13.17;;;6.53;;
19836;SDS011;10079;55.740;37.662;2023-02-19T05:59:47;13.03;;;5.57;;
19836;SDS011;10079;55.740;37.662;2023-02-19T06:02:27;11.80;;;6.03;;
19836;SDS011;10079;55.740;37.662;2023-02-19T06:05:12;14.33;;;6.20;;
19836;SDS011;10079;55.740;37.662;2023-02-19T06:07:56;14.17;;;6.57;;
19836;SDS011;10079;55.740;37.662;2023-02-19T06:10:37;13.10;;;6.27;;
19836;SDS011;10079;55.740;37.662;2023-02-19T06:13:29;12.63;;;6.80;;
19836;SDS011;10079;55.740;37.662;2023-02-19T06:16:11;9.80;;;5.73;;
19836;SDS011;10079;55.740;37.662;2023-02-19T06:18:52;13.17;;;6.93;;
19836;SDS011;10079;55.740;37.662;2023-02-19T06:21:33;13.13;;;6.30;;
19836;SDS011;10079;55.740;37.662;2023-02-19T06:24:17;14.03;;;6.67;;
19836;SDS011;10079;55.740;37.662;2023-02-19T06:27:06;13.53;;;6.43;;
19836;SDS011;10079;55.740;37.662;2023-02-19T06:29:50;14.57;;;6.57;;
19836;SDS011;10079;55.740;37.662;2023-02-19T06:32:34;11.57;;;5.83;;
19836;SDS011;10079;55.740;37.662;2023-02-19T06:35:15;11.20;;;5.97;;
19836;SDS011;10079;55.740;37.662;2023-02-19T06:37:56;10.63;;;6.37;;
19836;SDS011;10079;55.740;37.662;2023-02-19T06:40:48;14.13;;;7.07;;
19836;SDS011;10079;55.740;37.662;2023-02-19T06:54:17;11.63;;;6.37;;
19836;SDS011;10079;55.740;37.662;2023-02-19T06:57:06;13.00;;;6.47;;
19836;SDS011;10079;55.740;37.662;2023-02-19T06:59:59;11.63;;;7.03;;
19836;SDS011;10079;55.740;37.662;2023-02-19T07:02:43;13.90;;;6.70;;
19836;SDS011;10079;55.740;37.662;2023-02-19T07:05:27;11.17;;;6.10;;
19836;SDS011;10079;55.740;37.662;2023-02-19T07:08:11;12.43;;;5.90;;
19836;SDS011;10079;55.740;37.662;2023-02-19T07:11:00;13.57;;;6.73;;
19836;SDS011;10079;55.740;37.662;2023-02-19T07:13:44;13.93;;;6.37;;
19836;SDS011;10079;55.740;37.662;2023-02-19T07:37:40;12.23;;;6.73;;
19836;SDS011;10079;55.740;37.662;2023-02-19T07:40:24;12.90;;;7.20;;
19836;SDS011;10079;55.740;37.662;2023-02-19T07:43:05;9.97;;;5.47;;
19836;SDS011;10079;55.740;37.662;2023-02-19T07:45:54;12.10;;;6.50;;
19836;SDS011;10079;55.740;37.662;2023-02-19T07:48:35;10.03;;;6.03;;
19836;SDS011;10079;55.740;37.662;2023-02-19T08:01:52;13.13;;;6.70;;
19836;SDS011;10079;55.740;37.662;2023-02-19T08:04:33;13.77;;;6.57;;
19836;SDS011;10079;55.740;37.662;2023-02-19T08:07:14;14.73;;;7.00;;
19836;SDS011;10079;55.740;37.662;2023-02-19T08:09:55;11.37;;;5.83;;
19836;SDS011;10079;55.740;37.662;2023-02-19T08:12:44;12.43;;;6.63;;
19836;SDS011;10079;55.740;37.662;2023-02-19T08:15:29;14.20;;;7.07;;
19836;SDS011;10079;55.740;37.662;2023-02-19T08:18:11;11.80;;;6.60;;
19836;SDS011;10079;55.740;37.662;2023-02-19T08:20:55;16.30;;;6.83;;
19836;SDS011;10079;55.740;37.662;2023-02-19T08:23:39;16.17;;;6.60;;
19836;SDS011;10079;55.740;37.662;2023-02-19T08:26:19;13.23;;;6.50;;
19836;SDS011;10079;55.740;37.662;2023-02-19T08:29:00;9.93;;;6.00;;
19836;SDS011;10079;55.740;37.662;2023-02-19T08:31:41;13.20;;;6.50;;
19836;SDS011;10079;55.740;37.662;2023-02-19T08:34:21;11.97;;;6.80;;
19836;SDS011;10079;55.740;37.662;2023-02-19T08:37:03;12.33;;;6.40;;
19836;SDS011;10079;55.740;37.662;2023-02-19T08:39:44;17.30;;;6.83;;
19836;SDS011;10079;55.740;37.662;2023-02-19T08:42:24;17.40;;;8.40;;
19836;SDS011;10079;55.740;37.662;2023-02-19T08:45:06;11.67;;;6.60;;
19836;SDS011;10079;55.740;37.662;2023-02-19T08:47:49;13.97;;;6.20;;
19836;SDS011;10079;55.740;37.662;2023-02-19T08:50:30;13.43;;;7.03;;
19836;SDS011;10079;55.740;37.662;2023-02-19T08:53:10;13.17;;;7.37;;
19836;SDS011;10079;55.740;37.662;2023-02-19T08:55:51;11.50;;;7.00;;
19836;SDS011;10079;55.740;37.662;2023-02-19T08:58:32;11.63;;;7.50;;
19836;SDS011;10079;55.740;37.662;2023-02-19T09:01:14;13.80;;;7.37;;
19836;SDS011;10079;55.740;37.662;2023-02-19T09:03:57;12.40;;;7.40;;
19836;SDS011;10079;55.740;37.662;2023-02-19T09:06:38;15.00;;;7.30;;
19836;SDS011;10079;55.740;37.662;2023-02-19T09:09:31;14.37;;;8.17;;
19836;SDS011;10079;55.740;37.662;2023-02-19T09:23:02;17.20;;;7.90;;
19836;SDS011;10079;55.740;37.662;2023-02-19T09:25:47;15.07;;;7.27;;
19836;SDS011;10079;55.740;37.662;2023-02-19T09:28:28;13.30;;;7.70;;
19836;SDS011;10079;55.740;37.662;2023-02-19T09:31:10;11.93;;;7.10;;
19836;SDS011;10079;55.740;37.662;2023-02-19T09:33:54;12.97;;;7.17;;
19836;SDS011;10079;55.740;37.662;2023-02-19T09:36:38;11.60;;;6.93;;
19836;SDS011;10079;55.740;37.662;2023-02-19T09:39:31;14.20;;;7.13;;
19836;SDS011;10079;55.740;37.662;2023-02-19T09:42:16;16.07;;;7.90;;
19836;SDS011;10079;55.740;37.662;2023-02-19T09:45:00;15.27;;;7.40;;
19836;SDS011;10079;55.740;37.662;2023-02-19T09:47:41;14.67;;;7.87;;
19836;SDS011;10079;55.740;37.662;2023-02-19T09:50:33;13.90;;;7.20;;
19836;SDS011;10079;55.740;37.662;2023-02-19T09:53:26;13.63;;;7.47;;
19836;SDS011;10079;55.740;37.662;2023-02-19T09:56:06;15.37;;;7.37;;
19836;SDS011;10079;55.740;37.662;2023-02-19T09:58:51;13.67;;;7.80;;
19836;SDS011;10079;55.740;37.662;2023-02-19T10:01:36;12.93;;;7.17;;
19836;SDS011;10079;55.740;37.662;2023-02-19T10:14:49;15.67;;;8.00;;
19836;SDS011;10079;55.740;37.662;2023-02-19T10:17:36;15.30;;;7.70;;
19836;SDS011;10079;55.740;37.662;2023-02-19T10:20:21;14.77;;;7.50;;
19836;SDS011;10079;55.740;37.662;2023-02-19T10:23:02;18.23;;;8.17;;
19836;SDS011;10079;55.740;37.662;2023-02-19T10:25:49;14.93;;;7.00;;
19836;SDS011;10079;55.740;37.662;2023-02-19T10:28:38;13.73;;;7.90;;
19836;SDS011;10079;55.740;37.662;2023-02-19T10:31:23;17.07;;;8.87;;
19836;SDS011;10079;55.740;37.662;2023-02-19T10:34:03;14.87;;;8.20;;
19836;SDS011;10079;55.740;37.662;2023-02-19T10:36:43;15.37;;;7.27;;
19836;SDS011;10079;55.740;37.662;2023-02-19T10:39:32;15.87;;;7.80;;
19836;SDS011;10079;55.740;37.662;2023-02-19T10:42:28;14.47;;;7.97;;
19836;SDS011;10079;55.740;37.662;2023-02-19T10:45:23;15.10;;;7.63;;
19836;SDS011;10079;55.740;37.662;2023-02-19T10:48:20;16.07;;;7.63;;
19836;SDS011;10079;55.740;37.662;2023-02-19T10:51:01;14.50;;;6.97;;
19836;SDS011;10079;55.740;37.662;2023-02-19T10:53:43;13.67;;;8.30;;
19836;SDS011;10079;55.740;37.662;2023-02-19T10:56:24;16.23;;;7.80;;
19836;SDS011;10079;55.740;37.662;2023-02-19T11:02:14;12.00;;;7.17;;
19836;SDS011;10079;55.740;37.662;2023-02-19T11:05:19;14.30;;;7.20;;
19836;SDS011;10079;55.740;37.662;2023-02-19T11:08:02;14.77;;;7.60;;
19836;SDS011;10079;55.740;37.662;2023-02-19T11:21:21;14.77;;;8.13;;
19836;SDS011;10079;55.740;37.662;2023-02-19T11:24:12;12.57;;;7.47;;
19836;SDS011;10079;55.740;37.662;2023-02-19T11:26:47;13.97;;;8.07;;
19836;SDS011;10079;55.740;37.662;2023-02-19T11:29:27;15.10;;;7.90;;
19836;SDS011;10079;55.740;37.662;2023-02-19T11:35:16;12.43;;;7.60;;
19836;SDS011;10079;55.740;37.662;2023-02-19T11:38:00;13.40;;;7.40;;
19836;SDS011;10079;55.740;37.662;2023-02-19T11:40:56;13.67;;;6.60;;
19836;SDS011;10079;55.740;37.662;2023-02-19T11:54:31;13.40;;;8.40;;
19836;SDS011;10079;55.740;37.662;2023-02-19T12:08:09;13.93;;;8.60;;
19836;SDS011;10079;55.740;37.662;2023-02-19T12:11:01;16.47;;;8.63;;
19836;SDS011;10079;55.740;37.662;2023-02-19T12:13:49;13.07;;;7.80;;
19836;SDS011;10079;55.740;37.662;2023-02-19T12:16:30;13.23;;;7.93;;
19836;SDS011;10079;55.740;37.662;2023-02-19T12:19:17;15.47;;;8.17;;
19836;SDS011;10079;55.740;37.662;2023-02-19T12:35:50;13.57;;;7.70;;
19836;SDS011;10079;55.740;37.662;2023-02-19T12:38:35;12.43;;;7.03;;
19836;SDS011;10079;55.740;37.662;2023-02-19T13:02:40;17.30;;;9.20;;
19836;SDS011;10079;55.740;37.662;2023-02-19T13:05:26;12.70;;;7.77;;
19836;SDS011;10079;55.740;37.662;2023-02-19T13:08:11;13.00;;;8.07;;
19836;SDS011;10079;55.740;37.662;2023-02-19T13:10:55;13.73;;;7.73;;
19836;SDS011;10079;55.740;37.662;2023-02-19T13:13:53;14.33;;;7.53;;
19836;SDS011;10079;55.740;37.662;2023-02-19T13:16:36;13.87;;;7.83;;
19836;SDS011;10079;55.740;37.662;2023-02-19T13:19:17;13.63;;;7.83;;
19836;SDS011;10079;55.740;37.662;2023-02-19T13:22:06;16.60;;;8.60;;
19836;SDS011;10079;55.740;37.662;2023-02-19T13:24:44;14.60;;;7.77;;
19836;SDS011;10079;55.740;37.662;2023-02-19T13:30:34;16.67;;;9.03;;
19836;SDS011;10079;55.740;37.662;2023-02-19T13:36:22;13.10;;;7.73;;
19836;SDS011;10079;55.740;37.662;2023-02-19T13:39:11;14.80;;;7.40;;
19836;SDS011;10079;55.740;37.662;2023-02-19T13:41:50;15.83;;;8.73;;
19836;SDS011;10079;55.740;37.662;2023-02-19T13:44:35;14.23;;;8.17;;
19836;SDS011;10079;55.740;37.662;2023-02-19T13:50:11;17.40;;;8.33;;
19836;SDS011;10079;55.740;37.662;2023-02-19T13:52:50;16.30;;;8.30;;
19836;SDS011;10079;55.740;37.662;2023-02-19T14:01:15;15.80;;;8.53;;
19836;SDS011;10079;55.740;37.662;2023-02-19T14:04:13;17.80;;;9.23;;
19836;SDS011;10079;55.740;37.662;2023-02-19T14:09:56;16.13;;;8.63;;
19836;SDS011;10079;55.740;37.662;2023-02-19T14:12:40;15.20;;;8.17;;
19836;SDS011;10079;55.740;37.662;2023-02-19T14:15:40;15.73;;;8.30;;
19836;SDS011;10079;55.740;37.662;2023-02-19T14:32:03;16.03;;;9.47;;
19836;SDS011;10079;55.740;37.662;2023-02-19T14:34:44;19.90;;;9.70;;
19836;SDS011;10079;55.740;37.662;2023-02-19T14:58:31;19.27;;;9.90;;
19836;SDS011;10079;55.740;37.662;2023-02-19T15:04:20;18.17;;;9.37;;
19836;SDS011;10079;55.740;37.662;2023-02-19T15:07:02;17.20;;;9.17;;
19836;SDS011;10079;55.740;37.662;2023-02-19T15:09:43;22.00;;;9.40;;
19836;SDS011;10079;55.740;37.662;2023-02-19T15:12:34;18.87;;;9.20;;
19836;SDS011;10079;55.740;37.662;2023-02-19T15:15:23;20.20;;;9.10;;
19836;SDS011;10079;55.740;37.662;2023-02-19T15:18:07;16.93;;;9.13;;
19836;SDS011;10079;55.740;37.662;2023-02-19T15:21:01;18.90;;;9.80;;
19836;SDS011;10079;55.740;37.662;2023-02-19T15:23:49;18.10;;;8.90;;
19836;SDS011;10079;55.740;37.662;2023-02-19T15:26:39;16.60;;;9.00;;
19836;SDS011;10079;55.740;37.662;2023-02-19T15:29:21;17.97;;;9.23;;
19836;SDS011;10079;55.740;37.662;2023-02-19T15:32:00;20.43;;;9.37;;
19836;SDS011;10079;55.740;37.662;2023-02-19T15:34:42;19.00;;;8.83;;
19836;SDS011;10079;55.740;37.662;2023-02-19T15:37:23;16.87;;;8.57;;
19836;SDS011;10079;55.740;37.662;2023-02-19T15:40:04;18.53;;;9.10;;
19836;SDS011;10079;55.740;37.662;2023-02-19T15:42:46;17.33;;;8.77;;
19836;SDS011;10079;55.740;37.662;2023-02-19T15:45:30;16.33;;;9.33;;
19836;SDS011;10079;55.740;37.662;2023-02-19T15:48:14;18.27;;;8.67;;
19836;SDS011;10079;55.740;37.662;2023-02-19T15:50:56;18.07;;;8.83;;
19836;SDS011;10079;55.740;37.662;2023-02-19T15:53:38;20.75;;;12.20;;
19836;SDS011;10079;55.740;37.662;2023-02-19T15:56:22;21.20;;;12.30;;
19836;SDS011;10079;55.740;37.662;2023-02-19T15:59:03;19.55;;;12.05;;
19836;SDS011;10079;55.740;37.662;2023-02-19T16:01:42;19.33;;;10.10;;
19836;SDS011;10079;55.740;37.662;2023-02-19T16:04:26;21.27;;;9.70;;
19836;SDS011;10079;55.740;37.662;2023-02-19T16:07:21;15.83;;;9.00;;
19836;SDS011;10079;55.740;37.662;2023-02-19T16:13:02;22.20;;;11.82;;
19836;SDS011;10079;55.740;37.662;2023-02-19T16:15:42;22.97;;;11.27;;
19836;SDS011;10079;55.740;37.662;2023-02-19T16:18:27;21.10;;;10.17;;
19836;SDS011;10079;55.740;37.662;2023-02-19T16:21:07;20.10;;;10.40;;
19836;SDS011;10079;55.740;37.662;2023-02-19T16:24:02;20.20;;;9.67;;
19836;SDS011;10079;55.740;37.662;2023-02-19T16:26:55;18.40;;;9.53;;
19836;SDS011;10079;55.740;37.662;2023-02-19T16:29:36;21.97;;;10.73;;
19836;SDS011;10079;55.740;37.662;2023-02-19T16:32:17;18.27;;;10.17;;
19836;SDS011;10079;55.740;37.662;2023-02-19T16:34:58;19.20;;;9.27;;
19836;SDS011;10079;55.740;37.662;2023-02-19T16:37:40;23.43;;;10.50;;
19836;SDS011;10079;55.740;37.662;2023-02-19T16:43:37;19.93;;;9.37;;
19836;SDS011;10079;55.740;37.662;2023-02-19T16:57:14;18.57;;;11.03;;
19836;SDS011;10079;55.740;37.662;2023-02-19T16:59:54;20.23;;;9.90;;
19836;SDS011;10079;55.740;37.662;2023-02-19T17:13:25;20.07;;;10.73;;
19836;SDS011;10079;55.740;37.662;2023-02-19T17:16:19;20.90;;;10.30;;
19836;SDS011;10079;55.740;37.662;2023-02-19T17:19:11;19.60;;;9.47;;
19836;SDS011;10079;55.740;37.662;2023-02-19T17:21:55;22.03;;;10.70;;
19836;SDS011;10079;55.740;37.662;2023-02-19T17:24:41;22.03;;;9.87;;
19836;SDS011;10079;55.740;37.662;2023-02-19T17:27:25;18.23;;;9.10;;
19836;SDS011;10079;55.740;37.662;2023-02-19T17:30:09;20.50;;;9.63;;
19836;SDS011;10079;55.740;37.662;2023-02-19T17:32:59;19.63;;;10.07;;
19836;SDS011;10079;55.740;37.662;2023-02-19T17:35:52;23.13;;;10.73;;
19836;SDS011;10079;55.740;37.662;2023-02-19T17:38:33;20.10;;;10.47;;
19836;SDS011;10079;55.740;37.662;2023-02-19T17:41:26;20.43;;;10.00;;
19836;SDS011;10079;55.740;37.662;2023-02-19T17:44:10;19.40;;;9.80;;
19836;SDS011;10079;55.740;37.662;2023-02-19T17:46:50;20.73;;;9.73;;
19836;SDS011;10079;55.740;37.662;2023-02-19T17:49:31;20.43;;;10.07;;
19836;SDS011;10079;55.740;37.662;2023-02-19T17:52:12;24.83;;;11.43;;
19836;SDS011;10079;55.740;37.662;2023-02-19T18:05:26;23.07;;;11.47;;
19836;SDS011;10079;55.740;37.662;2023-02-19T18:08:07;19.90;;;10.57;;
19836;SDS011;10079;55.740;37.662;2023-02-19T18:10:48;22.33;;;11.33;;
19836;SDS011;10079;55.740;37.662;2023-02-19T18:13:29;26.07;;;11.87;;
19836;SDS011;10079;55.740;37.662;2023-02-19T18:16:22;23.60;;;11.00;;
19836;SDS011;10079;55.740;37.662;2023-02-19T18:19:06;26.77;;;11.53;;
19836;SDS011;10079;55.740;37.662;2023-02-19T18:21:48;25.57;;;13.60;;
19836;SDS011;10079;55.740;37.662;2023-02-19T18:24:29;19.20;;;11.17;;
19836;SDS011;10079;55.740;37.662;2023-02-19T18:27:10;21.53;;;9.80;;
19836;SDS011;10079;55.740;37.662;2023-02-19T18:29:51;21.70;;;10.50;;
19836;SDS011;10079;55.740;37.662;2023-02-19T18:32:34;22.63;;;10.73;;
19836;SDS011;10079;55.740;37.662;2023-02-19T18:35:28;27.83;;;13.27;;
19836;SDS011;10079;55.740;37.662;2023-02-19T18:38:20;25.87;;;11.90;;
19836;SDS011;10079;55.740;37.662;2023-02-19T18:41:12;26.83;;;11.50;;
19836;SDS011;10079;55.740;37.662;2023-02-19T18:43:56;23.20;;;12.47;;
19836;SDS011;10079;55.740;37.662;2023-02-19T18:46:37;25.93;;;12.50;;
19836;SDS011;10079;55.740;37.662;2023-02-19T18:49:22;28.00;;;12.23;;
19836;SDS011;10079;55.740;37.662;2023-02-19T18:52:03;23.00;;;12.50;;
19836;SDS011;10079;55.740;37.662;2023-02-19T18:54:45;25.07;;;11.73;;
19836;SDS011;10079;55.740;37.662;2023-02-19T18:57:26;27.00;;;12.43;;
19836;SDS011;10079;55.740;37.662;2023-02-19T19:00:07;25.10;;;11.87;;
19836;SDS011;10079;55.740;37.662;2023-02-19T19:02:54;24.90;;;12.73;;
19836;SDS011;10079;55.740;37.662;2023-02-19T19:05:34;27.13;;;11.87;;
19836;SDS011;10079;55.740;37.662;2023-02-19T19:08:16;24.63;;;11.10;;
19836;SDS011;10079;55.740;37.662;2023-02-19T19:21:28;30.80;;;14.40;;
19836;SDS011;10079;55.740;37.662;2023-02-19T19:24:10;25.77;;;12.60;;
19836;SDS011;10079;55.740;37.662;2023-02-19T19:26:51;27.57;;;13.23;;
19836;SDS011;10079;55.740;37.662;2023-02-19T19:29:40;25.93;;;13.00;;
19836;SDS011;10079;55.740;37.662;2023-02-19T19:32:30;24.60;;;12.53;;
19836;SDS011;10079;55.740;37.662;2023-02-19T19:35:19;24.27;;;11.57;;
19836;SDS011;10079;55.740;37.662;2023-02-19T19:38:08;20.77;;;11.70;;
19836;SDS011;10079;55.740;37.662;2023-02-19T19:41:01;29.17;;;12.93;;
19836;SDS011;10079;55.740;37.662;2023-02-19T19:43:45;25.10;;;12.33;;
19836;SDS011;10079;55.740;37.662;2023-02-19T19:46:29;23.93;;;11.77;;
19836;SDS011;10079;55.740;37.662;2023-02-19T19:49:15;27.83;;;12.90;;
19836;SDS011;10079;55.740;37.662;2023-02-19T19:52:09;28.47;;;13.07;;
19836;SDS011;10079;55.740;37.662;2023-02-19T19:54:49;30.40;;;13.00;;
19836;SDS011;10079;55.740;37.662;2023-02-19T20:08:11;31.33;;;14.90;;
19836;SDS011;10079;55.740;37.662;2023-02-19T20:10:52;28.23;;;13.70;;
19836;SDS011;10079;55.740;37.662;2023-02-19T20:13:36;29.17;;;13.60;;
19836;SDS011;10079;55.740;37.662;2023-02-19T20:16:22;30.23;;;13.77;;
19836;SDS011;10079;55.740;37.662;2023-02-19T20:18:58;27.43;;;13.43;;
19836;SDS011;10079;55.740;37.662;2023-02-19T20:21:51;28.40;;;14.23;;
19836;SDS011;10079;55.740;37.662;2023-02-19T20:24:32;24.40;;;12.20;;
19836;SDS011;10079;55.740;37.662;2023-02-19T20:27:17;26.20;;;12.53;;
19836;SDS011;10079;55.740;37.662;2023-02-19T20:30:01;27.27;;;14.27;;
19836;SDS011;10079;55.740;37.662;2023-02-19T20:43:22;29.67;;;13.90;;
19836;SDS011;10079;55.740;37.662;2023-02-19T20:46:03;25.77;;;12.97;;
19836;SDS011;10079;55.740;37.662;2023-02-19T20:48:44;23.03;;;12.20;;
19836;SDS011;10079;55.740;37.662;2023-02-19T20:51:28;25.87;;;12.63;;
19836;SDS011;10079;55.740;37.662;2023-02-19T20:54:10;26.90;;;13.37;;
19836;SDS011;10079;55.740;37.662;2023-02-19T20:57:01;27.30;;;13.20;;
19836;SDS011;10079;55.740;37.662;2023-02-19T20:59:45;28.33;;;13.00;;
19836;SDS011;10079;55.740;37.662;2023-02-19T21:02:26;28.03;;;12.77;;
19836;SDS011;10079;55.740;37.662;2023-02-19T21:05:07;26.47;;;12.97;;
19836;SDS011;10079;55.740;37.662;2023-02-19T21:07:47;27.60;;;13.00;;
19836;SDS011;10079;55.740;37.662;2023-02-19T21:10:29;27.10;;;13.20;;
19836;SDS011;10079;55.740;37.662;2023-02-19T21:13:10;29.30;;;12.80;;
19836;SDS011;10079;55.740;37.662;2023-02-19T21:15:55;27.03;;;12.47;;
19836;SDS011;10079;55.740;37.662;2023-02-19T21:18:45;29.13;;;13.30;;
19836;SDS011;10079;55.740;37.662;2023-02-19T21:21:25;34.20;;;14.73;;
19836;SDS011;10079;55.740;37.662;2023-02-19T21:24:18;27.67;;;13.00;;
19836;SDS011;10079;55.740;37.662;2023-02-19T21:27:02;29.27;;;13.47;;
19836;SDS011;10079;55.740;37.662;2023-02-19T21:29:44;28.67;;;13.43;;
19836;SDS011;10079;55.740;37.662;2023-02-19T21:32:25;29.80;;;13.00;;
19836;SDS011;10079;55.740;37.662;2023-02-19T21:35:06;27.80;;;12.60;;
19836;SDS011;10079;55.740;37.662;2023-02-19T21:37:48;30.87;;;12.93;;
19836;SDS011;10079;55.740;37.662;2023-02-19T21:40:33;28.33;;;12.57;;
19836;SDS011;10079;55.740;37.662;2023-02-19T21:43:14;33.20;;;13.90;;
19836;SDS011;10079;55.740;37.662;2023-02-19T21:45:55;24.33;;;12.20;;
19836;SDS011;10079;55.740;37.662;2023-02-19T21:48:47;26.47;;;13.33;;
19836;SDS011;10079;55.740;37.662;2023-02-19T21:51:32;28.03;;;12.90;;